createdAt,value
2022-10-25T00:01:38.801Z,100.00
2022-10-25T00:04:07.586Z,100.00
2022-10-25T00:06:36.236Z,100.00
2022-10-25T00:09:19.864Z,100.00
2022-10-25T00:11:48.429Z,100.00
2022-10-25T00:14:18.836Z,100.00
2022-10-25T00:16:47.656Z,100.00
2022-10-25T00:19:16.335Z,100.00
2022-10-25T00:21:45.023Z,100.00
2022-10-25T00:24:14.392Z,100.00
2022-10-25T00:26:45.001Z,100.00
2022-10-25T00:29:14.015Z,100.00
2022-10-25T00:31:42.689Z,100.00
2022-10-25T00:34:11.365Z,100.00
2022-10-25T00:36:45.371Z,100.00
2022-10-25T00:39:15.514Z,100.00
2022-10-25T00:41:44.158Z,100.00
2022-10-25T00:44:38.440Z,100.00
2022-10-25T00:47:21.837Z,100.00
2022-10-25T00:49:56.051Z,100.00
2022-10-25T00:52:28.731Z,100.00
2022-10-25T00:54:59.584Z,100.00
2022-10-25T00:57:39.993Z,100.00
2022-10-25T01:00:09.718Z,100.00
2022-10-25T01:02:38.871Z,100.00
2022-10-25T01:05:09.299Z,100.00
2022-10-25T01:07:38.201Z,100.00
2022-10-25T01:10:07.675Z,100.00
2022-10-25T01:12:37.824Z,100.00
2022-10-25T01:15:07.390Z,100.00
2022-10-25T01:17:58.860Z,100.00
2022-10-25T01:20:47.345Z,100.00
2022-10-25T01:23:24.713Z,100.00
2022-10-25T01:26:13.104Z,100.00
2022-10-25T01:28:50.478Z,100.00
2022-10-25T01:31:38.798Z,100.00
2022-10-25T01:34:19.528Z,100.00
2022-10-25T01:36:53.634Z,100.00
2022-10-25T01:39:28.207Z,100.00
2022-10-25T01:42:05.476Z,100.00
2022-10-25T01:45:06.148Z,100.00
2022-10-25T01:47:40.580Z,100.00
2022-10-25T01:50:14.942Z,100.00
2022-10-25T01:52:43.564Z,100.00
2022-10-25T01:55:14.996Z,100.00
2022-10-25T01:57:55.332Z,100.00
2022-10-25T02:00:25.799Z,100.00
2022-10-25T02:03:24.224Z,100.00
2022-10-25T02:06:19.761Z,100.00
2022-10-25T02:09:00.029Z,100.00
2022-10-25T02:11:31.742Z,100.00
2022-10-25T02:14:23.703Z,100.00
2022-10-25T02:17:17.800Z,100.00
2022-10-25T02:19:49.460Z,100.00
2022-10-25T02:22:20.805Z,100.00
2022-10-25T02:24:51.391Z,100.00
2022-10-25T02:27:23.213Z,100.00
2022-10-25T02:29:53.564Z,100.00
2022-10-25T02:32:22.870Z,100.00
2022-10-25T02:34:52.120Z,100.00
2022-10-25T02:37:20.902Z,100.00
2022-10-25T02:39:51.421Z,100.00
2022-10-25T02:42:22.782Z,100.00
2022-10-25T02:44:51.576Z,100.00
2022-10-25T02:47:24.310Z,100.00
2022-10-25T02:50:33.595Z,100.00
2022-10-25T02:53:04.257Z,100.00
2022-10-25T02:56:18.722Z,100.00
2022-10-25T02:58:49.291Z,100.00
2022-10-25T03:01:23.356Z,100.00
2022-10-25T03:03:52.694Z,100.00
2022-10-25T03:06:21.342Z,100.00
2022-10-25T03:09:13.638Z,100.00
2022-10-25T03:11:42.399Z,100.00
2022-10-25T03:14:16.849Z,100.00
2022-10-25T03:16:45.432Z,100.00
2022-10-25T03:19:14.480Z,100.00
2022-10-25T03:21:43.248Z,100.00
2022-10-25T03:24:11.967Z,100.00
2022-10-25T03:26:40.612Z,100.00
2022-10-25T03:29:09.232Z,100.00
2022-10-25T03:31:38.001Z,100.00
2022-10-25T03:34:06.567Z,100.00
2022-10-25T03:36:35.265Z,100.00
2022-10-25T03:39:06.587Z,100.00
2022-10-25T03:41:35.118Z,100.00
2022-10-25T03:44:03.785Z,100.00
2022-10-25T03:46:35.530Z,100.00
2022-10-25T03:49:04.189Z,100.00
2022-10-25T03:51:32.911Z,100.00
2022-10-25T03:54:04.535Z,100.00
2022-10-25T03:56:33.137Z,100.00
2022-10-25T03:59:01.824Z,100.00
2022-10-25T04:01:30.756Z,100.00
2022-10-25T04:03:59.375Z,100.00
2022-10-25T04:06:28.080Z,100.00
2022-10-25T04:08:58.719Z,100.00
2022-10-25T04:11:27.331Z,100.00
2022-10-25T04:13:55.906Z,100.00
2022-10-25T04:16:25.709Z,100.00
2022-10-25T04:18:58.068Z,100.00
2022-10-25T04:21:27.433Z,100.00
2022-10-25T04:23:58.253Z,100.00
2022-10-25T04:26:26.483Z,100.00
2022-10-25T04:28:56.931Z,100.00
2022-10-25T04:31:25.759Z,100.00
2022-10-25T04:33:56.124Z,100.00
2022-10-25T04:36:25.264Z,100.00
2022-10-25T04:38:54.702Z,100.00
2022-10-25T04:41:23.921Z,100.00
2022-10-25T04:43:53.197Z,100.00
2022-10-25T04:46:22.164Z,100.00
2022-10-25T04:48:52.431Z,100.00
2022-10-25T04:51:22.759Z,100.00
2022-10-25T04:53:54.350Z,100.00
2022-10-25T04:56:23.786Z,100.00
2022-10-25T04:58:52.529Z,100.00
2022-10-25T05:01:21.256Z,100.00
2022-10-25T05:03:50.079Z,100.00
2022-10-25T05:06:25.478Z,100.00
2022-10-25T05:08:54.865Z,100.00
2022-10-25T05:11:25.511Z,100.00
2022-10-25T05:14:01.507Z,100.00
2022-10-25T05:16:31.933Z,100.00
2022-10-25T05:19:03.684Z,100.00
2022-10-25T05:21:32.496Z,100.00
2022-10-25T05:24:02.667Z,100.00
2022-10-25T05:26:33.750Z,100.00
2022-10-25T05:29:04.571Z,100.00
2022-10-25T05:31:32.976Z,100.00
2022-10-25T05:34:05.411Z,100.00
2022-10-25T05:36:34.334Z,100.00
2022-10-25T05:39:32.441Z,100.00
2022-10-25T05:42:06.814Z,100.00
2022-10-25T05:44:35.455Z,100.00
2022-10-25T05:47:06.167Z,100.00
2022-10-25T05:49:40.488Z,100.00
2022-10-25T05:52:09.906Z,100.00
2022-10-25T05:54:38.585Z,100.00
2022-10-25T05:57:07.448Z,100.00
2022-10-25T05:59:36.277Z,100.00
2022-10-25T06:02:05.180Z,100.00
2022-10-25T06:04:36.935Z,100.00
2022-10-25T06:07:07.185Z,100.00
2022-10-25T06:09:40.271Z,100.00
2022-10-25T06:12:09.695Z,100.00
2022-10-25T06:14:38.602Z,100.00
2022-10-25T06:17:10.466Z,100.00
2022-10-25T06:19:39.397Z,100.00
2022-10-25T06:22:11.315Z,100.00
2022-10-25T06:24:42.228Z,100.00
2022-10-25T06:27:11.016Z,100.00
2022-10-25T06:29:46.272Z,100.00
2022-10-25T06:32:18.010Z,100.00
2022-10-25T06:34:52.780Z,100.00
2022-10-25T06:37:29.481Z,100.00
2022-10-25T06:40:04.432Z,100.00
2022-10-25T06:42:46.091Z,100.00
2022-10-25T06:45:21.885Z,100.00
2022-10-25T06:47:57.269Z,100.00
2022-10-25T06:50:27.587Z,100.00
2022-10-25T06:52:56.333Z,100.00
2022-10-25T06:55:25.028Z,100.00
2022-10-25T06:57:56.730Z,100.00
2022-10-25T07:00:30.539Z,100.00
2022-10-25T07:03:00.749Z,100.00
2022-10-25T07:05:29.636Z,100.00
2022-10-25T07:08:00.159Z,100.00
2022-10-25T07:10:31.003Z,100.00
2022-10-25T07:12:59.721Z,100.00
2022-10-25T07:15:28.356Z,100.00
2022-10-25T07:17:57.118Z,100.00
2022-10-25T07:20:25.639Z,100.00
2022-10-25T07:23:00.145Z,100.00
2022-10-25T07:25:29.347Z,100.00
2022-10-25T07:27:58.486Z,100.00
2022-10-25T07:30:27.456Z,100.00
2022-10-25T07:32:56.241Z,100.00
2022-10-25T07:35:27.260Z,100.00
2022-10-25T07:37:55.864Z,100.00
2022-10-25T07:40:24.482Z,100.00
2022-10-25T07:42:53.163Z,100.00
2022-10-25T07:45:24.405Z,100.00
2022-10-25T07:47:53.271Z,100.00
2022-10-25T07:50:21.889Z,100.00
2022-10-25T07:52:50.894Z,100.00
2022-10-25T07:55:19.645Z,100.00
2022-10-25T07:57:48.632Z,100.00
2022-10-25T08:00:17.869Z,100.00
2022-10-25T08:02:46.597Z,100.00
2022-10-25T08:05:16.798Z,100.00
2022-10-25T08:07:47.258Z,100.00
2022-10-25T08:10:17.475Z,100.00
2022-10-25T08:12:48.015Z,100.00
2022-10-25T08:15:18.304Z,100.00
2022-10-25T08:17:47.271Z,100.00
2022-10-25T08:20:16.082Z,100.00
2022-10-25T08:22:44.754Z,100.00
2022-10-25T08:25:16.234Z,100.00
2022-10-25T08:27:45.163Z,100.00
2022-10-25T08:30:13.948Z,100.00
2022-10-25T08:32:42.639Z,100.00
2022-10-25T08:35:14.493Z,100.00
2022-10-25T08:37:43.458Z,100.00
2022-10-25T08:40:24.724Z,100.00
2022-10-25T08:43:08.459Z,100.00
2022-10-25T08:45:49.269Z,100.00
2022-10-25T08:48:21.046Z,100.00
2022-10-25T08:50:52.648Z,100.00
2022-10-25T08:53:33.197Z,100.00
2022-10-25T08:56:16.160Z,100.00
2022-10-25T08:58:39.665Z,100.00
2022-10-25T09:01:23.480Z,100.00
2022-10-25T09:03:52.333Z,100.00
2022-10-25T09:06:43.813Z,100.00
2022-10-25T09:09:18.801Z,100.00
2022-10-25T09:12:08.463Z,100.00
2022-10-25T09:14:57.559Z,100.00
2022-10-25T09:17:29.212Z,100.00
2022-10-25T09:20:21.676Z,100.00
2022-10-25T09:23:09.603Z,100.00
2022-10-25T09:26:12.026Z,100.00
2022-10-25T09:29:08.742Z,100.00
2022-10-25T09:31:45.104Z,100.00
2022-10-25T09:34:16.051Z,100.00
2022-10-25T09:36:47.801Z,100.00
2022-10-25T09:39:28.095Z,100.00
2022-10-25T09:41:59.615Z,100.00
2022-10-25T09:44:49.314Z,100.00
2022-10-25T09:47:40.427Z,100.00
2022-10-25T09:50:14.582Z,100.00
2022-10-25T09:53:16.447Z,100.00
2022-10-25T09:55:59.333Z,100.00
2022-10-25T09:58:35.391Z,100.00
2022-10-25T10:01:08.851Z,100.00
2022-10-25T10:03:38.259Z,100.00
2022-10-25T10:06:18.997Z,100.00
2022-10-25T10:08:53.492Z,100.00
2022-10-25T10:11:23.017Z,100.00
2022-10-25T10:13:57.456Z,100.00
2022-10-25T10:16:30.600Z,100.00
2022-10-25T10:19:21.128Z,100.00
2022-10-25T10:21:59.185Z,100.00
2022-10-25T10:24:33.626Z,100.00
2022-10-25T10:27:05.004Z,100.00
2022-10-25T10:29:37.019Z,100.00
2022-10-25T10:32:13.648Z,100.00
2022-10-25T10:34:48.971Z,100.00
2022-10-25T10:37:20.354Z,100.00
2022-10-25T10:40:01.353Z,100.00
2022-10-25T10:42:38.050Z,100.00
2022-10-25T10:45:15.747Z,100.00
2022-10-25T10:47:47.390Z,100.00
2022-10-25T10:50:25.804Z,100.00
2022-10-25T10:53:06.879Z,100.00
2022-10-25T10:55:50.790Z,100.00
2022-10-25T10:58:25.631Z,100.00
2022-10-25T11:00:57.224Z,100.00
2022-10-25T11:03:48.717Z,100.00
2022-10-25T11:06:19.799Z,100.00
2022-10-25T11:08:49.977Z,100.00
2022-10-25T11:11:23.882Z,100.00
2022-10-25T11:13:59.943Z,100.00
2022-10-25T11:16:53.901Z,100.00
2022-10-25T11:19:39.302Z,100.00
2022-10-25T11:22:23.093Z,100.00
2022-10-25T11:25:59.693Z,100.00
2022-10-25T11:28:37.261Z,100.00
2022-10-25T11:31:17.882Z,100.00
2022-10-25T11:34:09.958Z,100.00
2022-10-25T11:36:57.404Z,100.00
2022-10-25T11:39:56.108Z,100.00
2022-10-25T11:42:39.925Z,57.37
2022-10-25T11:45:20.312Z,51.41
2022-10-25T11:48:16.106Z,50.46
2022-10-25T11:51:02.813Z,49.92
2022-10-25T11:53:55.478Z,48.20
2022-10-25T11:56:54.286Z,43.49
2022-10-25T11:59:30.273Z,43.49
2022-10-25T12:02:35.378Z,42.81
2022-10-25T12:05:23.360Z,43.09
2022-10-25T12:14:02.287Z,44.71
2022-10-25T12:16:51.278Z,44.50
2022-10-25T12:26:03.358Z,43.80
2022-10-25T12:28:35.457Z,42.82
2022-10-25T12:31:09.679Z,43.51
2022-10-25T12:44:10.368Z,42.31
2022-10-25T12:46:44.856Z,41.32
2022-10-25T12:49:50.631Z,41.95
2022-10-25T12:52:31.047Z,41.11
2022-10-25T12:55:17.395Z,39.55
2022-10-25T12:58:10.961Z,38.42
2022-10-25T13:00:50.922Z,38.65
2022-10-25T13:03:30.137Z,38.25
2022-10-25T13:06:33.320Z,38.44
2022-10-25T13:09:10.997Z,38.21
2022-10-25T13:11:48.488Z,38.30
2022-10-25T13:14:31.857Z,38.20
2022-10-25T13:17:28.105Z,38.08
2022-10-25T13:20:16.245Z,38.12
2022-10-25T13:22:54.158Z,38.24
2022-10-25T13:25:39.500Z,37.78
2022-10-25T13:28:22.789Z,37.84
2022-10-25T13:30:59.465Z,38.25
2022-10-25T13:34:01.461Z,37.96
2022-10-25T13:36:54.923Z,38.35
2022-10-25T13:39:41.560Z,37.87
2022-10-25T13:42:31.783Z,38.14
2022-10-25T13:45:10.060Z,38.23
2022-10-25T13:47:48.347Z,38.49
2022-10-25T13:50:22.864Z,38.97
2022-10-25T13:53:22.727Z,37.96
2022-10-25T13:56:10.353Z,37.82
2022-10-25T13:58:58.651Z,38.43
2022-10-25T14:05:01.328Z,38.67
2022-10-25T14:07:47.955Z,38.53
2022-10-25T14:11:06.903Z,39.06
2022-10-25T14:13:13.498Z,38.41
2022-10-25T14:15:50.939Z,39.52
2022-10-25T14:18:28.916Z,40.17
2022-10-25T14:21:07.564Z,40.57
2022-10-25T14:23:48.538Z,39.38
2022-10-25T14:26:13.768Z,42.11
2022-10-25T14:28:45.691Z,42.09
2022-10-25T14:31:17.447Z,44.04
2022-10-25T14:33:54.711Z,44.13
2022-10-25T14:36:36.567Z,44.21
2022-10-25T14:39:07.785Z,44.98
2022-10-25T14:41:45.501Z,43.37
2022-10-25T14:44:31.581Z,39.73
2022-10-25T14:47:02.554Z,39.96
2022-10-25T14:49:41.045Z,41.75
2022-10-25T14:52:12.579Z,40.41
2022-10-25T14:54:59.367Z,38.58
2022-10-25T14:57:33.458Z,38.02
2022-10-25T15:00:04.763Z,37.16
2022-10-25T15:05:55.427Z,36.50
2022-10-25T15:08:27.155Z,36.87
2022-10-25T15:11:08.090Z,36.76
2022-10-25T15:13:42.043Z,36.99
2022-10-25T15:16:38.597Z,37.41
2022-10-25T15:19:15.484Z,38.81
2022-10-25T15:21:48.379Z,40.18
2022-10-25T15:24:22.803Z,40.24
2022-10-25T15:27:00.792Z,40.44
2022-10-25T15:29:45.489Z,41.42
2022-10-25T15:32:17.162Z,42.56
2022-10-25T15:34:48.685Z,43.64
2022-10-25T15:37:21.471Z,43.87
2022-10-25T15:39:52.515Z,42.67
2022-10-25T15:42:23.020Z,46.65
2022-10-25T15:44:56.337Z,47.56
2022-10-25T15:47:33.940Z,48.38
2022-10-25T15:50:05.690Z,51.65
2022-10-25T15:52:37.540Z,51.56
2022-10-25T15:55:13.725Z,53.02
2022-10-25T15:57:42.374Z,55.14
2022-10-25T16:00:22.799Z,54.37
2022-10-25T16:02:53.862Z,54.28
2022-10-25T16:05:32.089Z,54.22
2022-10-25T16:08:00.801Z,55.44
2022-10-25T16:10:34.833Z,56.25
2022-10-25T16:13:06.582Z,55.86
2022-10-25T16:15:36.834Z,56.76
2022-10-25T16:18:05.921Z,57.11
2022-10-25T16:20:34.668Z,57.21
2022-10-25T16:23:03.435Z,57.99
2022-10-25T16:25:33.148Z,57.73
2022-10-25T16:28:04.854Z,57.73
2022-10-25T16:30:35.852Z,58.92
2022-10-25T16:33:04.924Z,57.56
2022-10-25T16:35:35.112Z,57.96
2022-10-25T16:38:06.553Z,57.92
2022-10-25T16:40:35.538Z,59.04
2022-10-25T16:43:10.901Z,59.14
2022-10-25T16:45:42.632Z,59.08
2022-10-25T16:48:12.844Z,58.74
2022-10-25T16:51:16.760Z,58.88
2022-10-25T16:53:56.527Z,58.47
2022-10-25T16:57:11.883Z,59.15
2022-10-25T17:00:01.497Z,59.11
2022-10-25T17:02:32.741Z,59.75
2022-10-25T17:05:05.171Z,62.19
2022-10-25T17:07:42.010Z,61.12
2022-10-25T17:13:35.216Z,64.74
2022-10-25T17:16:08.705Z,66.95
2022-10-25T17:18:38.600Z,67.04
2022-10-25T17:21:10.070Z,66.86
2022-10-25T17:23:40.459Z,67.49
2022-10-25T17:26:11.605Z,68.64
2022-10-25T17:28:45.230Z,68.45
2022-10-25T17:31:16.227Z,67.16
2022-10-25T17:33:47.666Z,69.29
2022-10-25T17:36:18.615Z,67.73
2022-10-25T17:38:52.736Z,70.48
2022-10-25T17:41:22.815Z,70.48
2022-10-25T17:43:56.704Z,69.28
2022-10-25T17:46:29.131Z,70.46
2022-10-25T17:49:04.560Z,75.73
2022-10-25T17:51:34.721Z,79.94
2022-10-25T17:54:05.687Z,83.23
2022-10-25T17:56:37.270Z,86.51
2022-10-25T17:59:07.910Z,89.22
2022-10-25T18:01:50.724Z,88.10
2022-10-25T18:04:06.902Z,93.96
2022-10-25T18:06:38.696Z,100.00
2022-10-25T18:09:11.656Z,100.00
2022-10-25T18:11:40.326Z,100.00
2022-10-25T18:14:09.159Z,100.00
2022-10-25T18:16:38.700Z,100.00
2022-10-25T18:19:07.657Z,100.00
2022-10-25T18:21:37.907Z,100.00
2022-10-25T18:24:06.990Z,100.00
2022-10-25T18:26:37.879Z,79.67
2022-10-25T18:29:07.597Z,79.82
2022-10-25T18:31:37.116Z,73.15
2022-10-25T18:34:05.764Z,70.45
2022-10-25T18:36:34.361Z,69.21
2022-10-25T18:39:02.979Z,70.74
2022-10-25T18:41:35.326Z,69.71
2022-10-25T18:44:15.057Z,70.99
2022-10-25T18:46:44.140Z,71.01
2022-10-25T18:49:15.781Z,70.71
2022-10-25T18:51:51.678Z,70.25
2022-10-25T18:54:20.518Z,70.15
2022-10-25T18:57:03.819Z,72.08
2022-10-25T18:59:24.074Z,71.85
2022-10-25T19:01:53.158Z,73.65
2022-10-25T19:04:21.863Z,73.46
2022-10-25T19:06:53.798Z,73.30
2022-10-25T19:09:26.343Z,75.49
2022-10-25T19:11:55.276Z,76.54
2022-10-25T19:14:30.197Z,74.40
2022-10-25T19:16:58.865Z,74.74
2022-10-25T19:19:29.217Z,74.91
2022-10-25T19:21:58.723Z,73.77
2022-10-25T19:24:27.370Z,69.86
2022-10-25T19:26:57.975Z,71.68
2022-10-25T19:29:26.569Z,72.46
2022-10-25T19:31:57.977Z,74.91
2022-10-25T19:34:26.731Z,76.21
2022-10-25T19:36:56.750Z,76.37
2022-10-25T19:39:29.207Z,75.16
2022-10-25T19:41:57.791Z,78.58
2022-10-25T19:44:28.613Z,79.04
2022-10-25T19:46:58.761Z,77.17
2022-10-25T19:49:30.079Z,77.27
2022-10-25T19:51:58.755Z,79.88
2022-10-25T19:54:28.637Z,80.13
2022-10-25T19:56:57.210Z,80.30
2022-10-25T19:59:26.304Z,80.67
2022-10-25T20:01:55.121Z,80.00
2022-10-25T20:04:23.945Z,82.89
2022-10-25T20:06:52.969Z,82.79
2022-10-25T20:09:22.135Z,83.96
2022-10-25T20:11:53.127Z,85.75
2022-10-25T20:14:21.746Z,86.39
2022-10-25T20:16:50.763Z,86.07
2022-10-25T20:19:21.097Z,87.56
2022-10-25T20:21:51.753Z,89.01
2022-10-25T20:24:20.508Z,89.58
2022-10-25T20:26:53.955Z,92.27
2022-10-25T20:29:24.735Z,96.84
2022-10-25T20:31:54.140Z,94.03
2022-10-25T20:34:25.670Z,93.89
2022-10-25T20:36:54.325Z,95.96
2022-10-25T20:39:24.478Z,96.25
2022-10-25T20:41:55.671Z,99.52
2022-10-25T20:47:06.484Z,100.00
2022-10-25T20:49:44.179Z,100.00
2022-10-25T20:52:12.916Z,100.00
2022-10-25T20:54:41.589Z,98.77
2022-10-25T20:57:10.279Z,97.67
2022-10-25T20:59:40.998Z,99.73
2022-10-25T21:02:11.375Z,100.00
2022-10-25T21:04:53.439Z,100.00
2022-10-25T21:07:13.027Z,100.00
2022-10-25T21:09:50.622Z,100.00
2022-10-25T21:12:19.238Z,100.00
2022-10-25T21:14:47.753Z,100.00
2022-10-25T21:17:18.073Z,100.00
2022-10-25T21:19:49.609Z,100.00
2022-10-25T21:22:18.348Z,100.00
2022-10-25T21:24:48.617Z,100.00
2022-10-25T21:27:17.383Z,100.00
2022-10-25T21:29:46.145Z,100.00
2022-10-25T21:32:14.871Z,100.00
2022-10-25T21:34:43.526Z,100.00
2022-10-25T21:37:12.258Z,100.00
2022-10-25T21:39:42.314Z,100.00
2022-10-25T21:42:11.973Z,100.00
2022-10-25T21:44:40.988Z,100.00
2022-10-25T21:47:09.717Z,100.00
2022-10-25T21:49:38.446Z,100.00
2022-10-25T21:52:07.160Z,100.00
2022-10-25T21:54:35.826Z,100.00
2022-10-25T21:57:07.281Z,100.00
2022-10-25T21:59:35.877Z,100.00
2022-10-25T22:02:04.856Z,100.00
2022-10-25T22:04:34.189Z,100.00
2022-10-25T22:07:02.830Z,100.00
2022-10-25T22:09:33.103Z,100.00
2022-10-25T22:12:02.538Z,100.00
2022-10-25T22:14:31.167Z,100.00
2022-10-25T22:16:59.931Z,100.00
2022-10-25T22:19:31.225Z,100.00
2022-10-25T22:22:01.981Z,100.00
2022-10-25T22:24:30.509Z,100.00
2022-10-25T22:26:59.230Z,100.00
2022-10-25T22:29:27.965Z,100.00
2022-10-25T22:31:59.578Z,100.00
2022-10-25T22:34:29.282Z,100.00
2022-10-25T22:37:01.472Z,100.00
2022-10-25T22:39:33.220Z,100.00
2022-10-25T22:42:03.174Z,100.00
2022-10-25T22:44:31.689Z,100.00
2022-10-25T22:47:00.367Z,100.00
2022-10-25T22:49:31.588Z,100.00
2022-10-25T22:52:00.249Z,100.00
2022-10-25T22:54:30.656Z,100.00
2022-10-25T22:57:00.887Z,100.00
2022-10-25T22:59:29.420Z,100.00
2022-10-25T23:01:59.488Z,100.00
2022-10-25T23:04:29.352Z,100.00
2022-10-25T23:06:59.922Z,100.00
2022-10-25T23:09:28.664Z,100.00
2022-10-25T23:11:57.347Z,100.00
2022-10-25T23:14:26.043Z,100.00
2022-10-25T23:16:54.822Z,100.00
2022-10-25T23:19:23.514Z,100.00
2022-10-25T23:21:52.229Z,100.00
2022-10-25T23:24:20.907Z,100.00
2022-10-25T23:26:49.433Z,100.00
2022-10-25T23:29:18.071Z,100.00
2022-10-25T23:31:46.683Z,100.00
2022-10-25T23:34:15.307Z,100.00
2022-10-25T23:36:44.006Z,100.00
2022-10-25T23:39:12.670Z,100.00
2022-10-25T23:41:41.371Z,100.00
2022-10-25T23:44:10.054Z,100.00
2022-10-25T23:46:38.735Z,100.00
2022-10-25T23:49:08.827Z,100.00
2022-10-25T23:51:37.473Z,100.00
2022-10-25T23:54:07.713Z,100.00
2022-10-25T23:56:39.601Z,100.00
2022-10-25T23:59:08.289Z,100.00
